sensor_id;sensor_type;location;lat;lon;timestamp;P1;durP1;ratioP1;P2;durP2;ratioP2
9689;SDS011;4884;42.614;23.340;2023-04-26T00:01:39;9.67;;;7.70;;
9689;SDS011;4884;42.614;23.340;2023-04-26T00:04:05;9.73;;;8.73;;
9689;SDS011;4884;42.614;23.340;2023-04-26T00:06:31;8.83;;;7.90;;
9689;SDS011;4884;42.614;23.340;2023-04-26T00:08:57;9.00;;;7.97;;
9689;SDS011;4884;42.614;23.340;2023-04-26T00:11:22;10.23;;;8.53;;
9689;SDS011;4884;42.614;23.340;2023-04-26T00:13:47;8.53;;;7.63;;
9689;SDS011;4884;42.614;23.340;2023-04-26T00:16:13;9.00;;;7.93;;
9689;SDS011;4884;42.614;23.340;2023-04-26T00:18:38;12.13;;;8.30;;
9689;SDS011;4884;42.614;23.340;2023-04-26T00:21:04;8.70;;;7.80;;
9689;SDS011;4884;42.614;23.340;2023-04-26T00:23:30;10.83;;;7.93;;
9689;SDS011;4884;42.614;23.340;2023-04-26T00:25:56;9.37;;;8.03;;
9689;SDS011;4884;42.614;23.340;2023-04-26T00:28:21;10.30;;;7.87;;
9689;SDS011;4884;42.614;23.340;2023-04-26T00:30:46;10.27;;;8.33;;
9689;SDS011;4884;42.614;23.340;2023-04-26T00:33:13;9.53;;;8.23;;
9689;SDS011;4884;42.614;23.340;2023-04-26T00:35:38;14.13;;;8.10;;
9689;SDS011;4884;42.614;23.340;2023-04-26T00:38:04;13.63;;;9.87;;
9689;SDS011;4884;42.614;23.340;2023-04-26T00:40:30;11.17;;;8.70;;
9689;SDS011;4884;42.614;23.340;2023-04-26T00:42:56;10.13;;;8.40;;
9689;SDS011;4884;42.614;23.340;2023-04-26T00:45:22;10.37;;;9.23;;
9689;SDS011;4884;42.614;23.340;2023-04-26T00:47:47;11.80;;;9.27;;
9689;SDS011;4884;42.614;23.340;2023-04-26T00:50:13;13.30;;;9.63;;
9689;SDS011;4884;42.614;23.340;2023-04-26T00:52:38;10.57;;;9.03;;
9689;SDS011;4884;42.614;23.340;2023-04-26T00:55:04;9.90;;;8.90;;
9689;SDS011;4884;42.614;23.340;2023-04-26T00:57:30;10.50;;;9.40;;
9689;SDS011;4884;42.614;23.340;2023-04-26T00:59:55;9.87;;;8.53;;
9689;SDS011;4884;42.614;23.340;2023-04-26T01:02:21;10.70;;;9.57;;
9689;SDS011;4884;42.614;23.340;2023-04-26T01:04:46;9.73;;;8.73;;
9689;SDS011;4884;42.614;23.340;2023-04-26T01:07:12;10.57;;;9.40;;
9689;SDS011;4884;42.614;23.340;2023-04-26T01:09:37;12.50;;;8.80;;
9689;SDS011;4884;42.614;23.340;2023-04-26T01:12:03;11.83;;;9.57;;
9689;SDS011;4884;42.614;23.340;2023-04-26T01:14:29;8.97;;;8.07;;
9689;SDS011;4884;42.614;23.340;2023-04-26T01:16:56;10.27;;;9.00;;
9689;SDS011;4884;42.614;23.340;2023-04-26T01:19:21;9.83;;;8.83;;
9689;SDS011;4884;42.614;23.340;2023-04-26T01:21:47;10.40;;;9.00;;
9689;SDS011;4884;42.614;23.340;2023-04-26T01:24:13;9.43;;;7.97;;
9689;SDS011;4884;42.614;23.340;2023-04-26T01:26:38;12.90;;;9.80;;
9689;SDS011;4884;42.614;23.340;2023-04-26T01:29:19;11.70;;;9.17;;
9689;SDS011;4884;42.614;23.340;2023-04-26T01:31:45;12.07;;;8.80;;
9689;SDS011;4884;42.614;23.340;2023-04-26T01:34:11;8.93;;;8.03;;
9689;SDS011;4884;42.614;23.340;2023-04-26T01:36:36;10.83;;;7.83;;
9689;SDS011;4884;42.614;23.340;2023-04-26T01:39:02;8.63;;;7.70;;
9689;SDS011;4884;42.614;23.340;2023-04-26T01:41:28;8.13;;;7.33;;
9689;SDS011;4884;42.614;23.340;2023-04-26T01:43:53;8.77;;;7.90;;
9689;SDS011;4884;42.614;23.340;2023-04-26T01:46:19;9.73;;;8.53;;
9689;SDS011;4884;42.614;23.340;2023-04-26T01:48:45;9.77;;;8.33;;
9689;SDS011;4884;42.614;23.340;2023-04-26T01:51:11;9.33;;;8.17;;
9689;SDS011;4884;42.614;23.340;2023-04-26T01:53:36;10.57;;;8.60;;
9689;SDS011;4884;42.614;23.340;2023-04-26T01:56:02;10.77;;;7.90;;
9689;SDS011;4884;42.614;23.340;2023-04-26T01:58:28;9.73;;;7.60;;
9689;SDS011;4884;42.614;23.340;2023-04-26T02:00:53;11.27;;;8.97;;
9689;SDS011;4884;42.614;23.340;2023-04-26T02:03:19;12.37;;;9.40;;
9689;SDS011;4884;42.614;23.340;2023-04-26T02:05:45;12.87;;;9.40;;
9689;SDS011;4884;42.614;23.340;2023-04-26T02:08:10;11.83;;;9.13;;
9689;SDS011;4884;42.614;23.340;2023-04-26T02:10:36;14.17;;;9.57;;
9689;SDS011;4884;42.614;23.340;2023-04-26T02:13:01;11.33;;;9.33;;
9689;SDS011;4884;42.614;23.340;2023-04-26T02:15:26;11.30;;;8.70;;
9689;SDS011;4884;42.614;23.340;2023-04-26T02:17:52;8.80;;;7.77;;
9689;SDS011;4884;42.614;23.340;2023-04-26T02:20:19;13.50;;;9.27;;
9689;SDS011;4884;42.614;23.340;2023-04-26T02:22:45;9.40;;;8.27;;
9689;SDS011;4884;42.614;23.340;2023-04-26T02:25:10;9.50;;;8.43;;
9689;SDS011;4884;42.614;23.340;2023-04-26T02:27:35;9.77;;;8.20;;
9689;SDS011;4884;42.614;23.340;2023-04-26T02:30:01;8.90;;;7.90;;
9689;SDS011;4884;42.614;23.340;2023-04-26T02:32:26;12.53;;;8.93;;
9689;SDS011;4884;42.614;23.340;2023-04-26T02:34:52;10.37;;;9.07;;
9689;SDS011;4884;42.614;23.340;2023-04-26T02:37:17;10.93;;;8.70;;
9689;SDS011;4884;42.614;23.340;2023-04-26T02:39:42;11.87;;;9.43;;
9689;SDS011;4884;42.614;23.340;2023-04-26T02:42:08;8.77;;;7.87;;
9689;SDS011;4884;42.614;23.340;2023-04-26T02:44:34;10.67;;;8.70;;
9689;SDS011;4884;42.614;23.340;2023-04-26T02:47:00;11.60;;;9.60;;
9689;SDS011;4884;42.614;23.340;2023-04-26T02:49:25;10.17;;;9.03;;
9689;SDS011;4884;42.614;23.340;2023-04-26T02:51:51;11.20;;;9.10;;
9689;SDS011;4884;42.614;23.340;2023-04-26T02:54:16;10.37;;;8.67;;
9689;SDS011;4884;42.614;23.340;2023-04-26T02:56:42;13.27;;;11.50;;
9689;SDS011;4884;42.614;23.340;2023-04-26T02:59:07;32.60;;;25.93;;
9689;SDS011;4884;42.614;23.340;2023-04-26T03:01:33;22.97;;;17.97;;
9689;SDS011;4884;42.614;23.340;2023-04-26T03:03:58;14.50;;;10.37;;
9689;SDS011;4884;42.614;23.340;2023-04-26T03:06:23;20.73;;;15.93;;
9689;SDS011;4884;42.614;23.340;2023-04-26T03:08:49;37.60;;;29.63;;
9689;SDS011;4884;42.614;23.340;2023-04-26T03:11:14;26.03;;;20.23;;
9689;SDS011;4884;42.614;23.340;2023-04-26T03:13:40;22.40;;;16.93;;
9689;SDS011;4884;42.614;23.340;2023-04-26T03:16:05;23.60;;;18.60;;
9689;SDS011;4884;42.614;23.340;2023-04-26T03:18:31;25.00;;;21.10;;
9689;SDS011;4884;42.614;23.340;2023-04-26T03:20:56;27.93;;;22.93;;
9689;SDS011;4884;42.614;23.340;2023-04-26T03:23:21;16.63;;;14.83;;
9689;SDS011;4884;42.614;23.340;2023-04-26T03:25:49;13.40;;;10.83;;
9689;SDS011;4884;42.614;23.340;2023-04-26T03:28:15;11.63;;;10.43;;
9689;SDS011;4884;42.614;23.340;2023-04-26T03:30:41;10.93;;;8.97;;
9689;SDS011;4884;42.614;23.340;2023-04-26T03:33:06;11.20;;;9.50;;
9689;SDS011;4884;42.614;23.340;2023-04-26T03:35:31;10.43;;;8.97;;
9689;SDS011;4884;42.614;23.340;2023-04-26T03:37:57;10.90;;;9.67;;
9689;SDS011;4884;42.614;23.340;2023-04-26T03:40:22;11.70;;;9.93;;
9689;SDS011;4884;42.614;23.340;2023-04-26T03:42:48;12.27;;;10.97;;
9689;SDS011;4884;42.614;23.340;2023-04-26T03:45:13;13.77;;;12.13;;
9689;SDS011;4884;42.614;23.340;2023-04-26T03:47:38;22.13;;;17.07;;
9689;SDS011;4884;42.614;23.340;2023-04-26T03:50:04;35.10;;;29.47;;
9689;SDS011;4884;42.614;23.340;2023-04-26T03:52:30;14.77;;;11.70;;
9689;SDS011;4884;42.614;23.340;2023-04-26T03:54:56;12.37;;;11.03;;
9689;SDS011;4884;42.614;23.340;2023-04-26T03:57:21;13.33;;;11.40;;
9689;SDS011;4884;42.614;23.340;2023-04-26T03:59:46;12.03;;;10.73;;
9689;SDS011;4884;42.614;23.340;2023-04-26T04:02:12;12.23;;;10.33;;
9689;SDS011;4884;42.614;23.340;2023-04-26T04:04:37;14.00;;;11.07;;
9689;SDS011;4884;42.614;23.340;2023-04-26T04:07:03;15.13;;;11.83;;
9689;SDS011;4884;42.614;23.340;2023-04-26T04:09:28;15.50;;;11.10;;
9689;SDS011;4884;42.614;23.340;2023-04-26T04:11:54;15.20;;;11.90;;
9689;SDS011;4884;42.614;23.340;2023-04-26T04:14:19;13.40;;;10.47;;
9689;SDS011;4884;42.614;23.340;2023-04-26T04:16:45;12.80;;;11.10;;
9689;SDS011;4884;42.614;23.340;2023-04-26T04:19:10;13.63;;;10.70;;
9689;SDS011;4884;42.614;23.340;2023-04-26T04:21:35;15.13;;;12.13;;
9689;SDS011;4884;42.614;23.340;2023-04-26T04:24:01;13.60;;;11.80;;
9689;SDS011;4884;42.614;23.340;2023-04-26T04:26:27;14.13;;;11.43;;
9689;SDS011;4884;42.614;23.340;2023-04-26T04:28:52;15.30;;;11.60;;
9689;SDS011;4884;42.614;23.340;2023-04-26T04:31:19;20.87;;;14.90;;
9689;SDS011;4884;42.614;23.340;2023-04-26T04:33:45;20.37;;;14.10;;
9689;SDS011;4884;42.614;23.340;2023-04-26T04:36:11;18.03;;;13.43;;
9689;SDS011;4884;42.614;23.340;2023-04-26T04:38:37;15.63;;;12.53;;
9689;SDS011;4884;42.614;23.340;2023-04-26T04:41:02;18.13;;;14.00;;
9689;SDS011;4884;42.614;23.340;2023-04-26T04:43:28;15.73;;;12.83;;
9689;SDS011;4884;42.614;23.340;2023-04-26T04:45:53;18.77;;;13.73;;
9689;SDS011;4884;42.614;23.340;2023-04-26T04:48:19;17.20;;;14.67;;
9689;SDS011;4884;42.614;23.340;2023-04-26T04:50:45;21.43;;;17.37;;
9689;SDS011;4884;42.614;23.340;2023-04-26T04:53:10;23.23;;;17.50;;
9689;SDS011;4884;42.614;23.340;2023-04-26T04:55:39;25.40;;;18.37;;
9689;SDS011;4884;42.614;23.340;2023-04-26T04:58:05;23.80;;;17.93;;
9689;SDS011;4884;42.614;23.340;2023-04-26T05:00:30;24.40;;;18.47;;
9689;SDS011;4884;42.614;23.340;2023-04-26T05:02:56;25.00;;;20.03;;
9689;SDS011;4884;42.614;23.340;2023-04-26T05:05:21;26.77;;;19.73;;
9689;SDS011;4884;42.614;23.340;2023-04-26T05:07:47;24.60;;;19.23;;
9689;SDS011;4884;42.614;23.340;2023-04-26T05:10:12;25.27;;;18.73;;
9689;SDS011;4884;42.614;23.340;2023-04-26T05:12:38;25.43;;;17.47;;
9689;SDS011;4884;42.614;23.340;2023-04-26T05:15:04;24.90;;;18.00;;
9689;SDS011;4884;42.614;23.340;2023-04-26T05:17:30;23.13;;;18.13;;
9689;SDS011;4884;42.614;23.340;2023-04-26T05:19:57;27.50;;;20.20;;
9689;SDS011;4884;42.614;23.340;2023-04-26T05:22:22;28.83;;;20.97;;
9689;SDS011;4884;42.614;23.340;2023-04-26T05:24:48;27.13;;;21.10;;
9689;SDS011;4884;42.614;23.340;2023-04-26T05:27:13;36.67;;;27.37;;
9689;SDS011;4884;42.614;23.340;2023-04-26T05:29:39;36.27;;;22.63;;
9689;SDS011;4884;42.614;23.340;2023-04-26T05:32:05;29.90;;;21.87;;
9689;SDS011;4884;42.614;23.340;2023-04-26T05:34:30;34.77;;;29.20;;
9689;SDS011;4884;42.614;23.340;2023-04-26T05:36:56;31.77;;;23.40;;
9689;SDS011;4884;42.614;23.340;2023-04-26T05:39:21;32.80;;;22.03;;
9689;SDS011;4884;42.614;23.340;2023-04-26T05:41:47;27.07;;;20.10;;
9689;SDS011;4884;42.614;23.340;2023-04-26T05:44:12;27.20;;;21.30;;
9689;SDS011;4884;42.614;23.340;2023-04-26T05:46:38;28.90;;;21.23;;
9689;SDS011;4884;42.614;23.340;2023-04-26T05:49:04;26.93;;;20.07;;
9689;SDS011;4884;42.614;23.340;2023-04-26T05:51:30;25.43;;;19.30;;
9689;SDS011;4884;42.614;23.340;2023-04-26T05:53:55;23.50;;;18.47;;
9689;SDS011;4884;42.614;23.340;2023-04-26T05:56:21;22.93;;;19.03;;
9689;SDS011;4884;42.614;23.340;2023-04-26T05:58:48;24.70;;;19.43;;
9689;SDS011;4884;42.614;23.340;2023-04-26T06:01:13;26.37;;;19.93;;
9689;SDS011;4884;42.614;23.340;2023-04-26T06:03:39;28.03;;;19.53;;
9689;SDS011;4884;42.614;23.340;2023-04-26T06:06:05;20.00;;;16.23;;
9689;SDS011;4884;42.614;23.340;2023-04-26T06:08:32;15.93;;;14.23;;
9689;SDS011;4884;42.614;23.340;2023-04-26T06:10:57;16.60;;;14.93;;
9689;SDS011;4884;42.614;23.340;2023-04-26T06:13:22;17.20;;;14.77;;
9689;SDS011;4884;42.614;23.340;2023-04-26T06:15:48;16.97;;;13.33;;
9689;SDS011;4884;42.614;23.340;2023-04-26T06:18:13;12.33;;;10.83;;
9689;SDS011;4884;42.614;23.340;2023-04-26T06:20:39;10.93;;;9.90;;
9689;SDS011;4884;42.614;23.340;2023-04-26T06:23:05;8.93;;;7.90;;
9689;SDS011;4884;42.614;23.340;2023-04-26T06:25:31;7.73;;;7.03;;
9689;SDS011;4884;42.614;23.340;2023-04-26T06:27:57;7.03;;;6.33;;
9689;SDS011;4884;42.614;23.340;2023-04-26T06:30:23;7.47;;;6.77;;
9689;SDS011;4884;42.614;23.340;2023-04-26T06:32:48;7.80;;;6.80;;
9689;SDS011;4884;42.614;23.340;2023-04-26T06:35:14;6.27;;;5.77;;
9689;SDS011;4884;42.614;23.340;2023-04-26T06:37:39;7.67;;;6.27;;
9689;SDS011;4884;42.614;23.340;2023-04-26T06:40:05;7.13;;;6.43;;
9689;SDS011;4884;42.614;23.340;2023-04-26T06:42:31;9.27;;;6.70;;
9689;SDS011;4884;42.614;23.340;2023-04-26T06:44:57;7.10;;;6.07;;
9689;SDS011;4884;42.614;23.340;2023-04-26T06:47:22;7.27;;;5.93;;
9689;SDS011;4884;42.614;23.340;2023-04-26T06:49:47;6.53;;;5.93;;
9689;SDS011;4884;42.614;23.340;2023-04-26T06:52:13;9.03;;;6.90;;
9689;SDS011;4884;42.614;23.340;2023-04-26T06:54:38;6.90;;;6.13;;
9689;SDS011;4884;42.614;23.340;2023-04-26T06:57:03;7.50;;;6.60;;
9689;SDS011;4884;42.614;23.340;2023-04-26T06:59:29;6.37;;;5.77;;
9689;SDS011;4884;42.614;23.340;2023-04-26T07:01:54;7.13;;;6.53;;
9689;SDS011;4884;42.614;23.340;2023-04-26T07:04:19;6.10;;;5.57;;
9689;SDS011;4884;42.614;23.340;2023-04-26T07:06:45;6.33;;;5.80;;
9689;SDS011;4884;42.614;23.340;2023-04-26T07:09:10;7.83;;;5.90;;
9689;SDS011;4884;42.614;23.340;2023-04-26T07:11:36;6.60;;;6.10;;
9689;SDS011;4884;42.614;23.340;2023-04-26T07:14:02;7.07;;;6.37;;
9689;SDS011;4884;42.614;23.340;2023-04-26T07:16:28;7.00;;;5.30;;
9689;SDS011;4884;42.614;23.340;2023-04-26T07:18:53;6.40;;;5.90;;
9689;SDS011;4884;42.614;23.340;2023-04-26T07:21:22;7.43;;;6.73;;
9689;SDS011;4884;42.614;23.340;2023-04-26T07:23:47;5.10;;;4.70;;
9689;SDS011;4884;42.614;23.340;2023-04-26T07:26:12;4.30;;;3.90;;
9689;SDS011;4884;42.614;23.340;2023-04-26T07:28:38;4.07;;;3.67;;
9689;SDS011;4884;42.614;23.340;2023-04-26T07:31:03;3.77;;;3.47;;
9689;SDS011;4884;42.614;23.340;2023-04-26T07:33:28;5.37;;;3.50;;
9689;SDS011;4884;42.614;23.340;2023-04-26T07:35:57;8.83;;;4.37;;
9689;SDS011;4884;42.614;23.340;2023-04-26T07:38:24;3.73;;;3.43;;
9689;SDS011;4884;42.614;23.340;2023-04-26T07:40:49;3.10;;;2.67;;
9689;SDS011;4884;42.614;23.340;2023-04-26T07:43:15;3.70;;;2.80;;
9689;SDS011;4884;42.614;23.340;2023-04-26T07:45:41;2.90;;;2.70;;
9689;SDS011;4884;42.614;23.340;2023-04-26T07:48:07;3.33;;;3.13;;
9689;SDS011;4884;42.614;23.340;2023-04-26T07:50:32;3.10;;;2.87;;
9689;SDS011;4884;42.614;23.340;2023-04-26T07:52:58;3.37;;;3.07;;
9689;SDS011;4884;42.614;23.340;2023-04-26T07:55:23;3.93;;;3.63;;
9689;SDS011;4884;42.614;23.340;2023-04-26T07:57:48;6.07;;;3.27;;
9689;SDS011;4884;42.614;23.340;2023-04-26T08:00:14;3.50;;;3.03;;
9689;SDS011;4884;42.614;23.340;2023-04-26T08:02:43;3.90;;;3.60;;
9689;SDS011;4884;42.614;23.340;2023-04-26T08:05:10;3.97;;;3.37;;
9689;SDS011;4884;42.614;23.340;2023-04-26T08:07:35;5.40;;;3.80;;
9689;SDS011;4884;42.614;23.340;2023-04-26T08:10:01;5.60;;;3.20;;
9689;SDS011;4884;42.614;23.340;2023-04-26T08:12:26;4.13;;;3.50;;
9689;SDS011;4884;42.614;23.340;2023-04-26T08:14:51;5.17;;;3.30;;
9689;SDS011;4884;42.614;23.340;2023-04-26T08:17:17;4.17;;;3.77;;
9689;SDS011;4884;42.614;23.340;2023-04-26T08:19:43;4.03;;;3.63;;
9689;SDS011;4884;42.614;23.340;2023-04-26T08:22:08;5.07;;;4.57;;
9689;SDS011;4884;42.614;23.340;2023-04-26T08:24:34;4.97;;;4.53;;
9689;SDS011;4884;42.614;23.340;2023-04-26T08:26:59;4.20;;;3.80;;
9689;SDS011;4884;42.614;23.340;2023-04-26T08:29:25;5.57;;;4.57;;
9689;SDS011;4884;42.614;23.340;2023-04-26T08:31:51;4.97;;;4.47;;
9689;SDS011;4884;42.614;23.340;2023-04-26T08:34:16;4.90;;;4.07;;
9689;SDS011;4884;42.614;23.340;2023-04-26T08:36:42;4.37;;;3.73;;
9689;SDS011;4884;42.614;23.340;2023-04-26T08:39:08;6.93;;;4.23;;
9689;SDS011;4884;42.614;23.340;2023-04-26T08:41:49;6.43;;;4.10;;
9689;SDS011;4884;42.614;23.340;2023-04-26T08:44:20;5.13;;;4.27;;
9689;SDS011;4884;42.614;23.340;2023-04-26T08:46:56;4.57;;;3.30;;
9689;SDS011;4884;42.614;23.340;2023-04-26T08:49:35;4.00;;;3.53;;
9689;SDS011;4884;42.614;23.340;2023-04-26T08:52:02;4.23;;;3.70;;
9689;SDS011;4884;42.614;23.340;2023-04-26T08:54:28;4.17;;;3.73;;
9689;SDS011;4884;42.614;23.340;2023-04-26T08:56:55;4.33;;;3.50;;
9689;SDS011;4884;42.614;23.340;2023-04-26T08:59:23;3.60;;;3.30;;
9689;SDS011;4884;42.614;23.340;2023-04-26T09:01:48;4.33;;;3.17;;
9689;SDS011;4884;42.614;23.340;2023-04-26T09:04:14;4.97;;;4.00;;
9689;SDS011;4884;42.614;23.340;2023-04-26T09:06:39;3.03;;;2.73;;
9689;SDS011;4884;42.614;23.340;2023-04-26T09:09:05;3.37;;;3.17;;
9689;SDS011;4884;42.614;23.340;2023-04-26T09:11:55;4.53;;;3.30;;
9689;SDS011;4884;42.614;23.340;2023-04-26T09:14:21;4.33;;;3.57;;
9689;SDS011;4884;42.614;23.340;2023-04-26T09:16:47;3.67;;;3.23;;
9689;SDS011;4884;42.614;23.340;2023-04-26T09:19:13;4.47;;;3.30;;
9689;SDS011;4884;42.614;23.340;2023-04-26T09:21:41;4.43;;;3.60;;
9689;SDS011;4884;42.614;23.340;2023-04-26T09:24:08;5.27;;;3.30;;
9689;SDS011;4884;42.614;23.340;2023-04-26T09:26:33;5.70;;;3.10;;
9689;SDS011;4884;42.614;23.340;2023-04-26T09:29:12;4.20;;;3.40;;
9689;SDS011;4884;42.614;23.340;2023-04-26T09:31:45;4.00;;;3.60;;
9689;SDS011;4884;42.614;23.340;2023-04-26T09:34:12;4.07;;;3.20;;
9689;SDS011;4884;42.614;23.340;2023-04-26T09:36:54;4.73;;;3.83;;
9689;SDS011;4884;42.614;23.340;2023-04-26T09:41:58;3.17;;;2.97;;
9689;SDS011;4884;42.614;23.340;2023-04-26T09:44:24;4.10;;;3.67;;
9689;SDS011;4884;42.614;23.340;2023-04-26T09:47:23;5.37;;;3.53;;
9689;SDS011;4884;42.614;23.340;2023-04-26T09:52:15;6.40;;;3.37;;
9689;SDS011;4884;42.614;23.340;2023-04-26T09:54:43;3.67;;;3.17;;
9689;SDS011;4884;42.614;23.340;2023-04-26T09:57:13;3.00;;;2.70;;
9689;SDS011;4884;42.614;23.340;2023-04-26T09:59:41;3.70;;;3.33;;
9689;SDS011;4884;42.614;23.340;2023-04-26T10:02:20;3.23;;;2.83;;
9689;SDS011;4884;42.614;23.340;2023-04-26T10:04:48;3.10;;;2.90;;
9689;SDS011;4884;42.614;23.340;2023-04-26T10:07:16;3.87;;;3.03;;
9689;SDS011;4884;42.614;23.340;2023-04-26T10:09:42;3.13;;;2.87;;
9689;SDS011;4884;42.614;23.340;2023-04-26T10:12:09;3.80;;;2.50;;
9689;SDS011;4884;42.614;23.340;2023-04-26T10:14:35;5.30;;;3.00;;
9689;SDS011;4884;42.614;23.340;2023-04-26T10:17:01;5.23;;;2.63;;
9689;SDS011;4884;42.614;23.340;2023-04-26T10:19:27;3.27;;;2.47;;
9689;SDS011;4884;42.614;23.340;2023-04-26T10:21:53;3.00;;;2.80;;
9689;SDS011;4884;42.614;23.340;2023-04-26T10:24:22;4.77;;;3.30;;
9689;SDS011;4884;42.614;23.340;2023-04-26T10:26:54;3.67;;;3.37;;
9689;SDS011;4884;42.614;23.340;2023-04-26T10:29:24;3.47;;;3.00;;
9689;SDS011;4884;42.614;23.340;2023-04-26T10:34:35;2.73;;;2.53;;
9689;SDS011;4884;42.614;23.340;2023-04-26T10:37:11;2.53;;;2.37;;
9689;SDS011;4884;42.614;23.340;2023-04-26T10:39:38;2.73;;;2.20;;
9689;SDS011;4884;42.614;23.340;2023-04-26T10:42:20;2.63;;;2.43;;
9689;SDS011;4884;42.614;23.340;2023-04-26T10:49:49;1.87;;;1.70;;
9689;SDS011;4884;42.614;23.340;2023-04-26T10:52:16;2.33;;;2.13;;
9689;SDS011;4884;42.614;23.340;2023-04-26T10:57:15;2.87;;;2.33;;
9689;SDS011;4884;42.614;23.340;2023-04-26T11:02:44;2.30;;;2.20;;
9689;SDS011;4884;42.614;23.340;2023-04-26T11:05:10;2.27;;;2.07;;
9689;SDS011;4884;42.614;23.340;2023-04-26T11:08:23;2.40;;;2.17;;
9689;SDS011;4884;42.614;23.340;2023-04-26T11:13:30;2.43;;;1.70;;
9689;SDS011;4884;42.614;23.340;2023-04-26T11:16:08;2.97;;;2.27;;
9689;SDS011;4884;42.614;23.340;2023-04-26T11:18:36;4.03;;;2.53;;
9689;SDS011;4884;42.614;23.340;2023-04-26T11:21:03;2.40;;;2.20;;
9689;SDS011;4884;42.614;23.340;2023-04-26T11:23:29;5.17;;;3.00;;
9689;SDS011;4884;42.614;23.340;2023-04-26T11:25:58;2.23;;;2.03;;
9689;SDS011;4884;42.614;23.340;2023-04-26T11:28:27;2.17;;;1.97;;
9689;SDS011;4884;42.614;23.340;2023-04-26T11:30:52;2.43;;;2.23;;
9689;SDS011;4884;42.614;23.340;2023-04-26T11:33:18;5.70;;;2.27;;
9689;SDS011;4884;42.614;23.340;2023-04-26T11:35:48;5.00;;;2.73;;
9689;SDS011;4884;42.614;23.340;2023-04-26T11:38:14;2.40;;;2.20;;
9689;SDS011;4884;42.614;23.340;2023-04-26T11:40:40;4.83;;;1.90;;
9689;SDS011;4884;42.614;23.340;2023-04-26T11:43:06;5.10;;;2.00;;
9689;SDS011;4884;42.614;23.340;2023-04-26T11:45:33;2.87;;;2.67;;
9689;SDS011;4884;42.614;23.340;2023-04-26T11:48:03;4.90;;;3.37;;
9689;SDS011;4884;42.614;23.340;2023-04-26T11:50:30;5.17;;;4.00;;
9689;SDS011;4884;42.614;23.340;2023-04-26T11:52:59;3.83;;;2.50;;
9689;SDS011;4884;42.614;23.340;2023-04-26T11:55:29;7.07;;;2.47;;
9689;SDS011;4884;42.614;23.340;2023-04-26T11:58:08;4.83;;;2.73;;
9689;SDS011;4884;42.614;23.340;2023-04-26T12:00:35;3.57;;;3.03;;
9689;SDS011;4884;42.614;23.340;2023-04-26T12:03:04;2.73;;;2.53;;
9689;SDS011;4884;42.614;23.340;2023-04-26T12:05:31;3.23;;;2.87;;
9689;SDS011;4884;42.614;23.340;2023-04-26T12:07:57;2.93;;;2.73;;
9689;SDS011;4884;42.614;23.340;2023-04-26T12:12:50;3.83;;;3.37;;
9689;SDS011;4884;42.614;23.340;2023-04-26T12:15:16;5.17;;;2.53;;
9689;SDS011;4884;42.614;23.340;2023-04-26T12:17:52;4.13;;;2.33;;
9689;SDS011;4884;42.614;23.340;2023-04-26T12:20:25;2.67;;;2.47;;
9689;SDS011;4884;42.614;23.340;2023-04-26T12:23:02;4.73;;;3.30;;
9689;SDS011;4884;42.614;23.340;2023-04-26T12:25:29;4.33;;;3.40;;
9689;SDS011;4884;42.614;23.340;2023-04-26T12:27:55;3.20;;;2.33;;
9689;SDS011;4884;42.614;23.340;2023-04-26T12:30:21;2.23;;;2.03;;
9689;SDS011;4884;42.614;23.340;2023-04-26T12:32:46;2.40;;;2.20;;
9689;SDS011;4884;42.614;23.340;2023-04-26T12:35:11;3.57;;;2.70;;
9689;SDS011;4884;42.614;23.340;2023-04-26T12:37:37;2.47;;;2.30;;
9689;SDS011;4884;42.614;23.340;2023-04-26T12:40:02;3.50;;;2.97;;
9689;SDS011;4884;42.614;23.340;2023-04-26T12:42:28;3.80;;;2.70;;
9689;SDS011;4884;42.614;23.340;2023-04-26T12:44:53;2.60;;;2.40;;
9689;SDS011;4884;42.614;23.340;2023-04-26T12:47:19;2.40;;;2.20;;
9689;SDS011;4884;42.614;23.340;2023-04-26T12:49:44;4.73;;;3.07;;
9689;SDS011;4884;42.614;23.340;2023-04-26T12:52:10;2.33;;;2.13;;
9689;SDS011;4884;42.614;23.340;2023-04-26T12:54:35;2.97;;;2.77;;
9689;SDS011;4884;42.614;23.340;2023-04-26T12:57:00;3.23;;;2.83;;
9689;SDS011;4884;42.614;23.340;2023-04-26T12:59:26;2.90;;;2.70;;
9689;SDS011;4884;42.614;23.340;2023-04-26T13:01:51;3.07;;;2.20;;
9689;SDS011;4884;42.614;23.340;2023-04-26T13:04:16;4.13;;;2.00;;
9689;SDS011;4884;42.614;23.340;2023-04-26T13:06:42;4.10;;;2.47;;
9689;SDS011;4884;42.614;23.340;2023-04-26T13:09:07;3.60;;;3.10;;
9689;SDS011;4884;42.614;23.340;2023-04-26T13:11:33;2.57;;;2.37;;
9689;SDS011;4884;42.614;23.340;2023-04-26T13:13:58;6.27;;;5.53;;
9689;SDS011;4884;42.614;23.340;2023-04-26T13:16:24;5.77;;;3.23;;
9689;SDS011;4884;42.614;23.340;2023-04-26T13:18:49;5.10;;;4.60;;
9689;SDS011;4884;42.614;23.340;2023-04-26T13:21:15;10.17;;;9.07;;
9689;SDS011;4884;42.614;23.340;2023-04-26T13:23:40;4.03;;;3.63;;
9689;SDS011;4884;42.614;23.340;2023-04-26T13:26:06;4.80;;;4.20;;
9689;SDS011;4884;42.614;23.340;2023-04-26T13:28:31;7.17;;;3.30;;
9689;SDS011;4884;42.614;23.340;2023-04-26T13:30:57;4.77;;;4.37;;
9689;SDS011;4884;42.614;23.340;2023-04-26T13:33:23;7.10;;;5.17;;
9689;SDS011;4884;42.614;23.340;2023-04-26T13:35:48;4.57;;;4.17;;
9689;SDS011;4884;42.614;23.340;2023-04-26T13:38:14;25.67;;;23.53;;
9689;SDS011;4884;42.614;23.340;2023-04-26T13:40:39;20.97;;;19.07;;
9689;SDS011;4884;42.614;23.340;2023-04-26T13:43:05;69.33;;;46.83;;
9689;SDS011;4884;42.614;23.340;2023-04-26T13:45:30;24.07;;;21.70;;
9689;SDS011;4884;42.614;23.340;2023-04-26T13:47:56;6.40;;;5.90;;
9689;SDS011;4884;42.614;23.340;2023-04-26T13:50:21;5.40;;;4.90;;
9689;SDS011;4884;42.614;23.340;2023-04-26T13:52:46;5.17;;;4.20;;
9689;SDS011;4884;42.614;23.340;2023-04-26T13:55:14;4.63;;;4.03;;
9689;SDS011;4884;42.614;23.340;2023-04-26T13:57:40;3.90;;;3.60;;
9689;SDS011;4884;42.614;23.340;2023-04-26T14:00:06;3.93;;;3.47;;
9689;SDS011;4884;42.614;23.340;2023-04-26T14:02:32;4.10;;;3.80;;
9689;SDS011;4884;42.614;23.340;2023-04-26T14:04:58;4.83;;;4.37;;
9689;SDS011;4884;42.614;23.340;2023-04-26T14:07:23;4.07;;;3.77;;
9689;SDS011;4884;42.614;23.340;2023-04-26T14:09:49;7.27;;;4.57;;
9689;SDS011;4884;42.614;23.340;2023-04-26T14:12:15;11.13;;;9.53;;
9689;SDS011;4884;42.614;23.340;2023-04-26T14:14:40;7.87;;;6.20;;
9689;SDS011;4884;42.614;23.340;2023-04-26T14:17:06;6.23;;;5.73;;
9689;SDS011;4884;42.614;23.340;2023-04-26T14:19:31;5.83;;;5.30;;
9689;SDS011;4884;42.614;23.340;2023-04-26T14:21:57;8.83;;;6.53;;
9689;SDS011;4884;42.614;23.340;2023-04-26T14:24:22;10.40;;;9.30;;
9689;SDS011;4884;42.614;23.340;2023-04-26T14:26:48;5.53;;;5.13;;
9689;SDS011;4884;42.614;23.340;2023-04-26T14:29:13;5.23;;;4.73;;
9689;SDS011;4884;42.614;23.340;2023-04-26T14:31:38;5.57;;;4.77;;
9689;SDS011;4884;42.614;23.340;2023-04-26T14:34:04;4.97;;;4.57;;
9689;SDS011;4884;42.614;23.340;2023-04-26T14:36:30;5.80;;;5.30;;
9689;SDS011;4884;42.614;23.340;2023-04-26T14:38:56;5.27;;;4.77;;
9689;SDS011;4884;42.614;23.340;2023-04-26T14:41:21;8.27;;;5.30;;
9689;SDS011;4884;42.614;23.340;2023-04-26T14:43:47;11.30;;;6.10;;
9689;SDS011;4884;42.614;23.340;2023-04-26T14:46:12;8.40;;;5.77;;
9689;SDS011;4884;42.614;23.340;2023-04-26T14:48:38;6.47;;;5.50;;
9689;SDS011;4884;42.614;23.340;2023-04-26T14:51:03;5.50;;;5.00;;
9689;SDS011;4884;42.614;23.340;2023-04-26T14:53:29;6.27;;;5.77;;
9689;SDS011;4884;42.614;23.340;2023-04-26T14:55:54;6.80;;;6.30;;
9689;SDS011;4884;42.614;23.340;2023-04-26T14:58:23;8.10;;;6.57;;
9689;SDS011;4884;42.614;23.340;2023-04-26T15:00:49;6.67;;;5.90;;
9689;SDS011;4884;42.614;23.340;2023-04-26T15:03:15;6.30;;;5.73;;
9689;SDS011;4884;42.614;23.340;2023-04-26T15:05:41;7.57;;;6.87;;
9689;SDS011;4884;42.614;23.340;2023-04-26T15:08:06;6.50;;;5.90;;
9689;SDS011;4884;42.614;23.340;2023-04-26T15:10:31;11.57;;;7.60;;
9689;SDS011;4884;42.614;23.340;2023-04-26T15:12:57;8.43;;;7.63;;